createdAt,value
2019-01-09T00:01:51.496Z,3.00
2019-01-09T00:04:21.870Z,3.98
2019-01-09T00:06:52.164Z,4.85
2019-01-09T00:09:22.842Z,4.20
2019-01-09T00:11:53.119Z,4.60
2019-01-09T00:14:23.705Z,6.20
2019-01-09T00:16:54.246Z,4.33
2019-01-09T00:19:26.070Z,3.60
2019-01-09T00:21:56.492Z,4.93
2019-01-09T00:24:26.850Z,3.70
2019-01-09T00:26:57.289Z,4.20
2019-01-09T00:29:27.888Z,4.13
2019-01-09T00:31:58.259Z,8.38
2019-01-09T00:34:28.549Z,5.07
2019-01-09T00:37:03.378Z,5.70
2019-01-09T00:39:33.834Z,5.13
2019-01-09T00:42:04.242Z,6.37
2019-01-09T00:44:34.754Z,7.03
2019-01-09T00:47:05.097Z,6.53
2019-01-09T00:49:35.389Z,7.67
2019-01-09T00:52:06.108Z,6.57
2019-01-09T00:54:36.404Z,6.97
2019-01-09T00:57:06.761Z,6.27
2019-01-09T00:59:37.343Z,5.93
2019-01-09T01:02:19.071Z,5.50
2019-01-09T01:04:54.869Z,5.90
2019-01-09T01:07:39.794Z,4.17
2019-01-09T01:10:21.368Z,8.03
2019-01-09T01:13:13.423Z,5.13
2019-01-09T01:16:13.856Z,6.77
2019-01-09T01:18:56.433Z,6.97
2019-01-09T01:21:34.819Z,5.33
2019-01-09T01:24:25.632Z,6.17
2019-01-09T01:27:07.390Z,4.37
2019-01-09T01:29:52.390Z,5.00
2019-01-09T01:32:31.269Z,6.03
2019-01-09T01:35:10.211Z,6.53
2019-01-09T01:37:49.422Z,4.83
2019-01-09T01:40:37.928Z,5.10
2019-01-09T01:43:19.838Z,5.10
2019-01-09T01:45:58.620Z,6.23
2019-01-09T01:48:47.796Z,7.23
2019-01-09T01:51:35.746Z,7.20
2019-01-09T01:54:11.754Z,7.17
2019-01-09T01:57:15.044Z,6.20
2019-01-09T01:59:48.128Z,6.67
2019-01-09T02:02:39.331Z,5.80
2019-01-09T02:05:12.361Z,5.63
2019-01-09T02:08:06.216Z,4.63
2019-01-09T02:10:58.448Z,4.13
2019-01-09T02:13:41.333Z,5.13
2019-01-09T02:16:32.172Z,5.57
2019-01-09T02:19:05.452Z,5.50
2019-01-09T02:21:47.567Z,5.03
2019-01-09T02:24:26.109Z,4.17
2019-01-09T02:27:05.081Z,4.90
2019-01-09T02:29:49.952Z,5.90
2019-01-09T02:32:30.923Z,4.20
2019-01-09T02:35:01.532Z,3.57
2019-01-09T02:37:31.873Z,3.47
2019-01-09T02:40:02.375Z,4.30
2019-01-09T02:42:32.705Z,3.63
2019-01-09T02:45:04.482Z,3.83
2019-01-09T02:47:34.865Z,4.30
2019-01-09T02:50:05.786Z,4.00
2019-01-09T02:52:36.054Z,3.73
2019-01-09T02:55:07.207Z,3.80
2019-01-09T02:57:37.536Z,3.77
2019-01-09T03:00:10.494Z,4.00
2019-01-09T03:02:40.883Z,4.27
2019-01-09T03:05:11.425Z,3.83
2019-01-09T03:07:41.851Z,3.13
2019-01-09T03:10:12.291Z,4.50
2019-01-09T03:12:42.650Z,4.00
2019-01-09T03:15:13.617Z,4.17
2019-01-09T03:17:43.975Z,5.33
2019-01-09T03:20:14.650Z,4.30
2019-01-09T03:22:44.993Z,4.27
2019-01-09T03:25:15.330Z,5.07
2019-01-09T03:27:45.760Z,3.30
2019-01-09T03:30:16.083Z,3.67
2019-01-09T03:32:46.450Z,3.97
2019-01-09T03:35:16.989Z,3.67
2019-01-09T03:37:47.376Z,3.50
2019-01-09T03:40:17.675Z,3.50
2019-01-09T03:42:48.067Z,4.60
2019-01-09T03:45:18.394Z,3.37
2019-01-09T03:47:48.727Z,3.73
2019-01-09T03:50:19.226Z,4.17
2019-01-09T03:52:49.558Z,3.30
2019-01-09T03:55:19.906Z,3.40
2019-01-09T03:57:50.997Z,3.77
2019-01-09T04:00:21.369Z,3.63
2019-01-09T04:02:51.714Z,3.60
2019-01-09T04:05:22.191Z,4.13
2019-01-09T04:07:52.525Z,4.10
2019-01-09T04:10:22.858Z,4.53
2019-01-09T04:12:53.300Z,3.37
2019-01-09T04:15:23.722Z,3.60
2019-01-09T04:17:54.111Z,3.43
2019-01-09T04:20:43.614Z,3.73
2019-01-09T04:23:14.377Z,3.37
2019-01-09T04:25:44.689Z,4.80
2019-01-09T04:28:15.069Z,6.50
2019-01-09T04:30:45.460Z,5.23
2019-01-09T04:33:15.774Z,4.20
2019-01-09T04:35:46.280Z,4.10
2019-01-09T04:38:16.603Z,3.60
2019-01-09T04:40:47.801Z,3.50
2019-01-09T04:43:18.979Z,3.63
2019-01-09T04:45:49.298Z,3.73
2019-01-09T04:48:19.654Z,4.77
2019-01-09T04:50:50.150Z,5.30
2019-01-09T04:53:20.505Z,5.77
2019-01-09T04:55:50.897Z,5.87
2019-01-09T04:58:21.342Z,5.23
2019-01-09T05:00:51.694Z,5.50
2019-01-09T05:03:22.048Z,5.53
2019-01-09T05:05:52.605Z,5.07
2019-01-09T05:08:23.029Z,4.80
2019-01-09T05:10:53.420Z,5.37
2019-01-09T05:13:23.836Z,4.70
2019-01-09T05:15:54.176Z,4.50
2019-01-09T05:18:24.677Z,5.47
2019-01-09T05:20:55.112Z,4.90
2019-01-09T05:23:25.646Z,4.77
2019-01-09T05:25:56.225Z,5.83
2019-01-09T05:28:26.644Z,4.87
2019-01-09T05:30:56.992Z,5.20
2019-01-09T05:33:27.278Z,5.20
2019-01-09T05:35:57.874Z,5.17
2019-01-09T05:38:28.247Z,4.60
2019-01-09T05:44:39.389Z,4.40
2019-01-09T05:47:09.843Z,4.13
2019-01-09T05:49:40.148Z,5.13
2019-01-09T05:52:10.452Z,6.43
2019-01-09T05:54:41.627Z,5.93
2019-01-09T05:57:12.289Z,7.17
2019-01-09T05:59:42.657Z,12.77
2019-01-09T06:02:13.008Z,8.90
2019-01-09T06:05:02.413Z,6.43
2019-01-09T06:07:32.793Z,7.33
2019-01-09T06:10:03.177Z,7.60
2019-01-09T06:12:33.510Z,6.10
2019-01-09T06:15:04.009Z,7.17
2019-01-09T06:17:34.349Z,11.00
2019-01-09T06:20:04.703Z,16.70
2019-01-09T06:22:35.106Z,9.63
2019-01-09T06:25:05.785Z,8.37
2019-01-09T06:27:36.667Z,6.80
2019-01-09T06:30:09.878Z,6.60
2019-01-09T06:32:39.773Z,8.37
2019-01-09T06:35:10.197Z,6.47
2019-01-09T06:37:40.716Z,6.93
2019-01-09T06:40:11.071Z,7.27
2019-01-09T06:42:41.483Z,6.80
2019-01-09T06:45:11.787Z,8.73
2019-01-09T06:47:42.146Z,9.53
2019-01-09T06:50:15.444Z,9.37
2019-01-09T06:52:46.474Z,8.67
2019-01-09T06:55:16.860Z,7.87
2019-01-09T06:57:47.384Z,7.57
2019-01-09T07:00:17.737Z,7.90
2019-01-09T07:02:48.141Z,7.00
2019-01-09T07:05:18.611Z,8.67
2019-01-09T07:07:48.946Z,6.70
2019-01-09T07:10:19.266Z,7.10
2019-01-09T07:12:49.699Z,7.00
2019-01-09T07:15:20.184Z,7.87
2019-01-09T07:17:50.602Z,7.87
2019-01-09T07:20:21.111Z,8.97
2019-01-09T07:22:51.482Z,9.20
2019-01-09T07:25:21.766Z,9.77
2019-01-09T07:27:52.405Z,8.17
2019-01-09T07:30:22.848Z,9.13
2019-01-09T07:32:53.198Z,8.80
2019-01-09T07:35:23.614Z,10.07
2019-01-09T07:37:53.968Z,9.00
2019-01-09T07:40:24.309Z,8.37
2019-01-09T07:42:54.688Z,10.27
2019-01-09T07:45:25.078Z,10.70
2019-01-09T07:47:55.410Z,9.77
2019-01-09T07:50:25.926Z,9.13
2019-01-09T07:52:56.311Z,10.07
2019-01-09T07:55:26.648Z,11.77
2019-01-09T07:57:57.056Z,10.87
2019-01-09T08:00:27.624Z,8.87
2019-01-09T08:02:57.970Z,11.00
2019-01-09T08:05:28.456Z,11.10
2019-01-09T08:07:58.842Z,13.03
2019-01-09T08:10:29.172Z,13.07
2019-01-09T08:12:59.543Z,10.53
2019-01-09T08:15:29.884Z,9.00
2019-01-09T08:18:00.256Z,10.73
2019-01-09T08:20:30.728Z,10.87
2019-01-09T08:23:01.086Z,10.33
2019-01-09T08:25:31.414Z,11.87
2019-01-09T08:28:01.959Z,10.60
2019-01-09T08:30:32.758Z,11.93
2019-01-09T08:33:03.060Z,11.43
2019-01-09T08:35:33.602Z,10.97
2019-01-09T08:38:03.970Z,12.80
2019-01-09T08:40:34.267Z,10.53
2019-01-09T08:43:04.684Z,10.57
2019-01-09T08:45:34.968Z,13.67
2019-01-09T08:48:05.365Z,13.00
2019-01-09T08:50:35.874Z,15.23
2019-01-09T08:53:06.230Z,14.47
2019-01-09T08:55:36.512Z,12.27
2019-01-09T08:58:06.932Z,15.07
2019-01-09T09:00:37.264Z,17.20
2019-01-09T09:03:07.635Z,16.07
2019-01-09T09:05:38.082Z,17.47
2019-01-09T09:08:12.222Z,15.50
2019-01-09T09:10:40.315Z,20.63
2019-01-09T09:13:12.441Z,21.67
2019-01-09T09:15:43.593Z,16.70
2019-01-09T09:18:13.919Z,14.73
2019-01-09T09:20:44.440Z,14.00
2019-01-09T09:23:14.726Z,15.27
2019-01-09T09:25:45.185Z,16.07
2019-01-09T09:28:15.546Z,12.63
2019-01-09T09:30:46.123Z,11.43
2019-01-09T09:33:16.482Z,11.70
2019-01-09T09:35:46.941Z,11.00
2019-01-09T09:38:20.740Z,9.00
2019-01-09T09:40:49.065Z,10.73
2019-01-09T09:43:19.464Z,9.57
2019-01-09T09:45:49.884Z,8.13
2019-01-09T09:48:20.174Z,9.00
2019-01-09T09:50:50.749Z,7.87
2019-01-09T09:53:21.138Z,8.00
2019-01-09T09:55:51.499Z,8.53
2019-01-09T09:58:21.858Z,9.00
2019-01-09T10:00:52.212Z,8.43
2019-01-09T10:03:22.548Z,8.37
2019-01-09T10:05:53.397Z,11.43
2019-01-09T10:08:29.357Z,10.90
2019-01-09T10:10:55.605Z,10.30
2019-01-09T10:13:25.958Z,10.57
2019-01-09T10:15:56.314Z,9.17
2019-01-09T10:18:26.703Z,10.53
2019-01-09T10:20:57.430Z,9.67
2019-01-09T10:23:27.775Z,9.17
2019-01-09T10:25:58.313Z,9.50
2019-01-09T10:28:28.804Z,10.23
2019-01-09T10:30:59.552Z,8.53
2019-01-09T10:33:29.961Z,10.63
2019-01-09T10:36:00.421Z,9.43
2019-01-09T10:38:37.950Z,9.33
2019-01-09T10:41:02.648Z,9.10
2019-01-09T10:43:32.998Z,9.93
2019-01-09T10:46:03.505Z,9.47
2019-01-09T10:48:33.918Z,8.63
2019-01-09T10:51:04.388Z,7.47
2019-01-09T10:53:34.671Z,8.77
2019-01-09T10:56:05.712Z,8.10
2019-01-09T10:58:36.086Z,8.53
2019-01-09T11:01:06.562Z,9.30
2019-01-09T11:03:36.933Z,10.00
2019-01-09T11:06:07.501Z,10.43
2019-01-09T11:08:46.567Z,9.50
2019-01-09T11:11:09.850Z,10.67
2019-01-09T11:13:40.143Z,11.43
2019-01-09T11:16:10.541Z,9.37
2019-01-09T11:18:40.899Z,11.53
2019-01-09T11:21:11.321Z,11.27
2019-01-09T11:23:41.673Z,11.27
2019-01-09T11:26:12.130Z,11.37
2019-01-09T11:28:42.463Z,9.47
2019-01-09T11:31:12.953Z,9.03
2019-01-09T11:33:44.900Z,10.97
2019-01-09T11:36:15.234Z,8.87
2019-01-09T11:38:45.583Z,9.30
2019-01-09T11:41:16.055Z,8.17
2019-01-09T11:43:46.421Z,9.33
2019-01-09T11:46:20.269Z,9.50
2019-01-09T11:48:50.592Z,8.53
2019-01-09T11:51:21.085Z,9.00
2019-01-09T11:53:51.590Z,9.80
2019-01-09T11:56:21.989Z,11.07
2019-01-09T11:58:52.321Z,10.23
2019-01-09T12:01:22.791Z,12.03
2019-01-09T12:03:53.665Z,9.17
2019-01-09T12:06:23.952Z,8.60
2019-01-09T12:08:54.397Z,9.13
2019-01-09T12:11:26.613Z,9.43
2019-01-09T12:13:57.031Z,15.60
2019-01-09T12:16:27.356Z,11.17
2019-01-09T12:18:57.730Z,9.07
2019-01-09T12:21:28.223Z,8.60
2019-01-09T12:23:58.538Z,8.43
2019-01-09T12:26:28.941Z,9.57
2019-01-09T12:28:59.412Z,9.97
2019-01-09T12:31:29.783Z,10.90
2019-01-09T12:34:00.244Z,9.50
2019-01-09T12:36:31.011Z,11.27
2019-01-09T12:39:02.478Z,10.83
2019-01-09T12:41:34.232Z,11.90
2019-01-09T12:44:04.665Z,11.10
2019-01-09T12:46:35.115Z,9.70
2019-01-09T12:49:05.557Z,12.37
2019-01-09T12:51:36.078Z,12.03
2019-01-09T12:54:06.614Z,10.73
2019-01-09T12:56:36.993Z,12.00
2019-01-09T12:59:07.442Z,9.33
2019-01-09T13:01:37.774Z,9.70
2019-01-09T13:04:08.086Z,13.17
2019-01-09T13:06:38.536Z,9.90
2019-01-09T13:09:10.146Z,9.00
2019-01-09T13:11:40.517Z,8.90
2019-01-09T13:14:10.873Z,9.13
2019-01-09T13:16:47.740Z,9.60
2019-01-09T13:19:13.199Z,10.83
2019-01-09T13:21:43.665Z,9.80
2019-01-09T13:24:14.001Z,8.83
2019-01-09T13:26:44.370Z,11.40
2019-01-09T13:29:14.804Z,9.10
2019-01-09T13:31:45.168Z,8.10
2019-01-09T13:34:15.585Z,9.80
2019-01-09T13:36:46.120Z,10.37
2019-01-09T13:39:16.854Z,10.23
2019-01-09T13:41:47.206Z,10.03
2019-01-09T13:44:17.648Z,10.47
2019-01-09T13:46:49.347Z,11.80
2019-01-09T13:49:19.772Z,10.83
2019-01-09T13:51:50.058Z,10.73
2019-01-09T13:54:20.572Z,18.17
2019-01-09T13:56:50.938Z,17.23
2019-01-09T13:59:21.890Z,13.47
2019-01-09T14:01:52.230Z,28.33
2019-01-09T14:04:22.705Z,16.20
2019-01-09T14:06:53.078Z,7.80
2019-01-09T14:09:23.433Z,9.30
2019-01-09T14:11:53.894Z,9.07
2019-01-09T14:14:24.292Z,9.60
2019-01-09T14:16:54.638Z,7.73
2019-01-09T14:19:25.096Z,7.07
2019-01-09T14:21:56.415Z,6.27
2019-01-09T14:24:26.823Z,5.93
2019-01-09T14:26:57.166Z,4.90
2019-01-09T14:29:27.527Z,5.50
2019-01-09T14:31:57.997Z,4.13
2019-01-09T14:34:28.297Z,3.83
2019-01-09T14:36:58.598Z,3.60
2019-01-09T14:39:29.161Z,5.15
2019-01-09T14:41:59.700Z,4.80
2019-01-09T14:44:30.085Z,3.95
2019-01-09T14:47:00.487Z,5.22
2019-01-09T14:49:30.888Z,11.75
2019-01-09T14:52:01.256Z,4.75
2019-01-09T14:54:31.644Z,4.67
2019-01-09T14:57:02.151Z,4.55
2019-01-09T14:59:32.502Z,4.12
2019-01-09T15:02:02.924Z,3.47
2019-01-09T15:04:33.275Z,3.67
2019-01-09T15:07:05.043Z,3.62
2019-01-09T15:09:35.486Z,3.30
2019-01-09T15:12:05.928Z,2.70
2019-01-09T15:14:36.232Z,2.70
2019-01-09T15:17:07.248Z,2.58
2019-01-09T15:19:37.663Z,3.12
2019-01-09T15:22:08.193Z,2.35
2019-01-09T15:24:38.636Z,2.92
2019-01-09T15:27:08.992Z,2.22
2019-01-09T15:29:39.400Z,2.60
2019-01-09T15:32:09.777Z,3.40
2019-01-09T15:34:40.207Z,4.75
2019-01-09T15:37:12.751Z,2.20
2019-01-09T15:39:46.126Z,2.85
2019-01-09T15:42:16.944Z,3.22
2019-01-09T15:44:51.357Z,3.65
2019-01-09T15:47:25.239Z,3.75
2019-01-09T15:49:55.710Z,2.52
2019-01-09T15:52:26.233Z,3.67
2019-01-09T15:54:56.730Z,2.75
2019-01-09T15:57:27.082Z,2.45
2019-01-09T15:59:57.469Z,2.47
2019-01-09T16:02:27.867Z,2.70
2019-01-09T16:04:58.221Z,2.77
2019-01-09T16:07:28.764Z,3.05
2019-01-09T16:09:59.321Z,4.75
2019-01-09T16:12:33.818Z,3.10
2019-01-09T16:15:04.371Z,3.35
2019-01-09T16:17:34.732Z,4.40
2019-01-09T16:20:06.663Z,3.40
2019-01-09T16:22:38.668Z,2.45
2019-01-09T16:25:14.454Z,3.50
2019-01-09T16:27:45.166Z,3.20
2019-01-09T16:30:23.808Z,2.62
2019-01-09T16:32:57.380Z,1.98
2019-01-09T16:35:28.655Z,2.40
2019-01-09T16:38:12.874Z,2.15
2019-01-09T16:40:44.871Z,6.83
2019-01-09T16:43:17.922Z,4.17
2019-01-09T16:46:00.302Z,3.70
2019-01-09T16:48:30.846Z,4.42
2019-01-09T16:51:01.231Z,2.52
2019-01-09T16:53:41.486Z,2.95
2019-01-09T16:56:18.770Z,3.10
2019-01-09T16:58:49.734Z,2.70
2019-01-09T17:01:20.109Z,3.45
2019-01-09T17:03:50.925Z,3.17
2019-01-09T17:06:21.413Z,3.00
2019-01-09T17:08:51.745Z,2.87
2019-01-09T17:11:25.065Z,3.45
2019-01-09T17:13:55.747Z,2.67
2019-01-09T17:16:40.383Z,3.50
2019-01-09T17:19:10.831Z,2.65
2019-01-09T17:21:44.322Z,2.15
2019-01-09T17:24:20.158Z,2.30
2019-01-09T17:26:57.886Z,2.10
2019-01-09T17:29:38.248Z,2.72
2019-01-09T17:32:14.627Z,2.08
2019-01-09T17:34:48.973Z,3.33
2019-01-09T17:37:17.136Z,7.47
2019-01-09T17:40:05.089Z,5.20
2019-01-09T17:42:37.125Z,2.72
2019-01-09T17:48:13.795Z,4.12
2019-01-09T17:50:42.535Z,3.10
2019-01-09T17:53:18.811Z,3.67
2019-01-09T17:56:00.910Z,3.92
2019-01-09T17:58:33.095Z,4.08
2019-01-09T18:01:13.671Z,4.97
2019-01-09T18:04:23.383Z,6.35
2019-01-09T18:07:10.122Z,4.83
2019-01-09T18:09:40.665Z,3.92
2019-01-09T18:12:20.003Z,2.50
2019-01-09T18:14:58.275Z,2.90
2019-01-09T18:17:47.148Z,4.10
2019-01-09T18:20:44.120Z,3.52
2019-01-09T18:23:16.847Z,5.08
2019-01-09T18:25:47.200Z,6.12
2019-01-09T18:28:20.598Z,2.90
2019-01-09T18:31:03.519Z,3.70
2019-01-09T18:33:47.074Z,3.35
2019-01-09T18:36:28.716Z,4.45
2019-01-09T18:39:18.773Z,3.00
2019-01-09T18:42:00.645Z,2.80
2019-01-09T18:44:35.394Z,2.90
2019-01-09T18:47:28.872Z,4.47
2019-01-09T18:53:09.068Z,4.78
2019-01-09T18:55:43.614Z,3.30
2019-01-09T18:58:16.704Z,3.22
2019-01-09T19:00:49.199Z,2.15
2019-01-09T19:03:29.744Z,4.00
2019-01-09T19:06:10.035Z,4.62
2019-01-09T19:08:47.261Z,3.92
2019-01-09T19:11:18.792Z,3.15
2019-01-09T19:13:50.954Z,3.27
2019-01-09T19:16:24.247Z,6.10
2019-01-09T19:19:04.490Z,5.25
2019-01-09T19:21:34.815Z,3.45
2019-01-09T19:24:05.491Z,2.55
2019-01-09T19:26:36.251Z,3.75
2019-01-09T19:29:07.422Z,2.83
2019-01-09T19:31:41.083Z,2.98
2019-01-09T19:34:11.909Z,2.87
2019-01-09T19:36:48.437Z,3.75
2019-01-09T19:39:23.393Z,3.42
2019-01-09T19:41:57.745Z,4.45
2019-01-09T19:44:28.118Z,3.37
2019-01-09T19:47:03.334Z,3.42
2019-01-09T19:49:43.630Z,3.70
2019-01-09T19:52:15.555Z,5.28
2019-01-09T19:54:47.756Z,3.72
2019-01-09T19:57:20.915Z,3.27
2019-01-09T19:59:51.526Z,2.52
2019-01-09T20:02:22.259Z,4.83
2019-01-09T20:04:57.148Z,3.75
2019-01-09T20:07:27.691Z,3.95
2019-01-09T20:10:00.678Z,4.22
2019-01-09T20:12:57.850Z,3.10
2019-01-09T20:18:22.951Z,4.25
2019-01-09T20:21:25.833Z,5.12
2019-01-09T20:24:06.712Z,4.05
2019-01-09T20:24:40.875Z,3.00
2019-01-09T20:26:43.395Z,3.25
2019-01-09T20:29:26.598Z,2.60
2019-01-09T20:35:20.113Z,3.92
2019-01-09T20:37:52.576Z,3.45
2019-01-09T20:40:24.954Z,3.60
2019-01-09T20:42:55.181Z,2.40
2019-01-09T20:45:29.058Z,4.03
2019-01-09T20:47:59.993Z,2.67
2019-01-09T20:50:33.631Z,4.15
2019-01-09T20:53:10.700Z,4.20
2019-01-09T21:04:32.522Z,3.85
2019-01-09T21:07:22.164Z,4.12
2019-01-09T21:09:37.083Z,4.35
2019-01-09T21:12:31.262Z,3.58
2019-01-09T21:14:44.986Z,3.62
2019-01-09T21:17:23.699Z,4.30
2019-01-09T21:19:57.516Z,2.83
2019-01-09T21:22:28.826Z,3.10
2019-01-09T21:25:12.889Z,3.15
2019-01-09T21:27:57.533Z,7.20
2019-01-09T21:30:45.003Z,3.92
2019-01-09T21:33:32.730Z,5.83
2019-01-09T21:36:08.713Z,3.33
2019-01-09T21:39:00.941Z,2.42
2019-01-09T21:41:31.562Z,2.42
2019-01-09T21:44:03.711Z,2.55
2019-01-09T21:47:15.343Z,5.67
2019-01-09T21:49:23.209Z,2.90
2019-01-09T21:52:00.941Z,8.05
2019-01-09T21:54:32.317Z,3.45
2019-01-09T21:57:05.379Z,3.58
2019-01-09T22:02:21.007Z,4.70
2019-01-09T22:08:31.414Z,4.65
2019-01-09T22:11:09.339Z,3.98
2019-01-09T22:13:41.341Z,3.00
2019-01-09T22:16:18.112Z,4.15
2019-01-09T22:19:11.740Z,3.40
2019-01-09T22:21:34.225Z,3.70
2019-01-09T22:27:04.988Z,2.70
2019-01-09T22:29:49.927Z,2.75
2019-01-09T22:32:32.037Z,3.62
2019-01-09T22:35:08.098Z,4.65
2019-01-09T22:38:01.563Z,5.12
2019-01-09T22:41:15.671Z,5.30
2019-01-09T22:49:31.596Z,3.62
2019-01-09T22:52:02.258Z,3.85
2019-01-09T22:54:39.667Z,2.72
2019-01-09T22:57:10.215Z,3.90
2019-01-09T22:59:44.564Z,4.85
2019-01-09T23:02:16.382Z,4.28
2019-01-09T23:04:49.710Z,3.60
2019-01-09T23:07:20.349Z,3.20
2019-01-09T23:09:51.968Z,3.00
2019-01-09T23:12:24.394Z,2.75
2019-01-09T23:14:58.606Z,4.03
2019-01-09T23:17:35.502Z,3.10
2019-01-09T23:20:20.731Z,3.40
2019-01-09T23:23:00.863Z,3.83
2019-01-09T23:25:37.945Z,3.92
2019-01-09T23:31:29.687Z,3.65
2019-01-09T23:34:01.086Z,3.58
2019-01-09T23:36:38.626Z,2.95
2019-01-09T23:39:22.719Z,3.02
2019-01-09T23:45:07.371Z,3.70
2019-01-09T23:47:47.860Z,3.75
2019-01-09T23:50:18.617Z,2.72
